Time;durP1;ratioP1;P1;durP2;ratioP2;P2;SDS_P1;SDS_P2;PMS_P1;PMS_P2;Temp;Humidity;BMP_temperature;BMP_pressure;BME280_temperature;BME280_humidity;BME280_pressure;Samples;Min_cycle;Max_cycle;Signal;HPM_P1;HPM_P2
2023/03/16 00:02:08;;;;;;;6.53;4.47;;;3.70;99.90;;;;;;5014120;28;19915;-65
2023/03/16 00:04:36;;;;;;;10.60;5.63;;;3.70;99.90;;;;;;5014389;28;20332;-66
2023/03/16 00:07:10;;;;;;;7.72;5.30;;;3.60;99.90;;;;;;5013834;28;20034;-65
2023/03/16 00:09:39;;;;;;;9.23;5.30;;;3.50;99.90;;;;;;5013883;28;20417;-65
2023/03/16 00:12:08;;;;;;;7.35;5.13;;;3.60;99.90;;;;;;4996288;28;20064;-65
2023/03/16 00:14:34;;;;;;;7.55;4.80;;;3.50;99.90;;;;;;5014220;28;20026;-66
2023/03/16 00:17:00;;;;;;;6.88;5.10;;;3.50;99.90;;;;;;4996343;28;20025;-66
2023/03/16 00:19:25;;;;;;;7.53;5.20;;;3.50;99.90;;;;;;4996081;28;20033;-66
2023/03/16 00:21:51;;;;;;;7.77;4.73;;;3.40;99.90;;;;;;5014138;28;20026;-66
2023/03/16 00:24:18;;;;;;;8.97;5.77;;;3.30;99.90;;;;;;5016799;28;20083;-66
2023/03/16 00:26:44;;;;;;;8.40;5.15;;;3.20;99.90;;;;;;4998599;28;20065;-67
2023/03/16 00:29:10;;;;;;;10.60;5.68;;;3.10;99.90;;;;;;4999263;28;20026;-66
2023/03/16 00:31:37;;;;;;;10.35;5.10;;;3.10;99.90;;;;;;4997419;28;20117;-66
2023/03/16 00:34:02;;;;;;;7.68;5.28;;;3.00;99.90;;;;;;4995750;28;20026;-66
2023/03/16 00:36:29;;;;;;;7.43;5.30;;;3.00;99.90;;;;;;5013511;28;20041;-66
2023/03/16 00:38:54;;;;;;;7.80;5.03;;;2.90;99.90;;;;;;4996494;28;20025;-65
2023/03/16 00:41:21;;;;;;;7.33;5.13;;;2.80;99.90;;;;;;4996814;28;20122;-65
2023/03/16 00:43:47;;;;;;;9.05;5.63;;;2.80;99.90;;;;;;5014133;28;20493;-67
2023/03/16 00:46:16;;;;;;;6.78;4.90;;;2.70;99.90;;;;;;4996575;28;20368;-66
2023/03/16 00:48:44;;;;;;;8.65;5.68;;;2.60;99.90;;;;;;5014593;28;20045;-66
2023/03/16 00:51:13;;;;;;;8.57;5.35;;;2.60;99.90;;;;;;5014142;28;20018;-67
2023/03/16 00:53:40;;;;;;;8.73;4.97;;;2.60;99.90;;;;;;5014848;28;20087;-66
2023/03/16 00:56:07;;;;;;;10.02;5.20;;;2.60;99.90;;;;;;4996241;28;20065;-66
2023/03/16 00:58:35;;;;;;;8.75;5.05;;;2.60;99.90;;;;;;5013323;28;20538;-65
2023/03/16 01:01:15;;;;;;;7.57;4.93;;;2.60;99.90;;;;;;5013604;28;20041;-66
2023/03/16 01:03:40;;;;;;;6.88;4.85;;;2.60;99.90;;;;;;4996392;28;20028;-65
2023/03/16 01:06:09;;;;;;;7.77;4.97;;;2.60;99.90;;;;;;5013991;28;20109;-66
2023/03/16 01:08:35;;;;;;;9.27;5.00;;;2.50;99.90;;;;;;5018919;28;20026;-67
2023/03/16 01:11:10;;;;;;;8.32;5.25;;;2.60;99.90;;;;;;5018795;28;20029;-66
2023/03/16 01:13:36;;;;;;;6.50;4.63;;;2.60;99.90;;;;;;5021260;28;20085;-67
2023/03/16 01:16:03;;;;;;;8.13;4.90;;;2.60;99.90;;;;;;5014945;28;20061;-66
2023/03/16 01:18:33;;;;;;;8.45;4.43;;;2.60;99.90;;;;;;5013716;28;20057;-66
2023/03/16 01:21:00;;;;;;;7.50;4.50;;;2.70;99.90;;;;;;5013680;28;20489;-66
2023/03/16 01:23:28;;;;;;;6.70;4.30;;;2.80;99.90;;;;;;5013715;28;20467;-67
2023/03/16 01:25:54;;;;;;;7.75;5.30;;;2.80;99.90;;;;;;5013355;28;20444;-66
2023/03/16 01:28:23;;;;;;;8.25;4.43;;;2.80;99.90;;;;;;5013990;28;20104;-66
2023/03/16 01:30:52;;;;;;;8.35;4.45;;;2.80;99.90;;;;;;5013951;28;20549;-66
2023/03/16 01:33:19;;;;;;;9.82;5.20;;;2.80;99.90;;;;;;5013335;28;20026;-67
2023/03/16 01:35:55;;;;;;;6.55;4.45;;;2.80;99.90;;;;;;5013188;28;20032;-66
2023/03/16 01:38:22;;;;;;;8.07;4.85;;;2.80;99.90;;;;;;5014131;28;20026;-66
2023/03/16 01:40:52;;;;;;;6.85;4.55;;;2.70;99.90;;;;;;5013504;28;20042;-66
2023/03/16 01:43:19;;;;;;;7.22;4.88;;;2.60;99.90;;;;;;4996565;28;20061;-66
2023/03/16 01:46:03;;;;;;;7.85;5.07;;;2.60;99.90;;;;;;4997307;28;20414;-66
2023/03/16 01:48:49;;;;;;;8.68;5.28;;;2.60;99.90;;;;;;5019171;28;20391;-66
2023/03/16 01:51:35;;;;;;;8.07;4.47;;;2.60;99.90;;;;;;5017294;28;20400;-67
2023/03/16 01:54:17;;;;;;;6.68;4.57;;;2.70;99.90;;;;;;5016837;28;20470;-66
2023/03/16 01:57:08;;;;;;;9.77;4.80;;;2.70;99.90;;;;;;4999196;28;20029;-66
2023/03/16 01:59:53;;;;;;;7.43;4.80;;;2.70;99.90;;;;;;5016874;28;20446;-66
2023/03/16 02:02:24;;;;;;;7.40;5.07;;;2.90;99.90;;;;;;5016702;28;20026;-66
2023/03/16 02:04:58;;;;;;;7.78;4.68;;;2.90;99.90;;;;;;4999552;28;20481;-65
2023/03/16 02:07:26;;;;;;;8.20;5.10;;;2.80;99.90;;;;;;5016759;28;20375;-65
2023/03/16 02:09:56;;;;;;;9.27;4.78;;;2.80;99.90;;;;;;5010000;28;20033;-66
2023/03/16 02:12:22;;;;;;;9.23;5.22;;;2.70;99.90;;;;;;4998205;28;20022;-65
2023/03/16 02:14:49;;;;;;;7.45;5.05;;;2.60;99.90;;;;;;4980574;28;20368;-66
2023/03/16 02:17:19;;;;;;;8.05;5.03;;;2.50;99.90;;;;;;4997715;28;20030;-65
2023/03/16 02:20:12;;;;;;;8.77;5.18;;;2.50;99.90;;;;;;4979628;28;20391;-66
2023/03/16 02:22:42;;;;;;;7.47;4.85;;;2.40;99.90;;;;;;4995556;28;20033;-66
2023/03/16 02:25:09;;;;;;;9.82;5.35;;;2.40;99.90;;;;;;4998891;28;20041;-66
2023/03/16 02:28:05;;;;;;;9.10;5.20;;;2.40;99.90;;;;;;5016326;28;20076;-66
2023/03/16 02:30:31;;;;;;;8.60;5.40;;;2.50;99.90;;;;;;4995737;28;20057;-66
2023/03/16 02:32:57;;;;;;;7.35;5.60;;;2.40;99.90;;;;;;4998552;28;20026;-66
2023/03/16 02:35:22;;;;;;;7.13;4.90;;;2.40;99.90;;;;;;5016116;28;20030;-66
2023/03/16 02:37:48;;;;;;;11.23;5.13;;;2.50;99.90;;;;;;5015555;28;20041;-66
2023/03/16 02:40:35;;;;;;;9.03;4.93;;;2.70;99.90;;;;;;4998315;28;20022;-66
2023/03/16 02:43:12;;;;;;;6.30;4.70;;;2.70;99.90;;;;;;5015742;28;20042;-66
2023/03/16 02:45:54;;;;;;;6.75;4.70;;;2.60;99.90;;;;;;5016652;28;20025;-66
2023/03/16 02:48:27;;;;;;;9.32;5.47;;;2.70;99.90;;;;;;5017416;28;20390;-65
2023/03/16 02:50:53;;;;;;;6.68;4.32;;;2.70;99.90;;;;;;5015389;28;20038;-66
2023/03/16 02:53:19;;;;;;;7.07;4.63;;;2.80;99.90;;;;;;5033734;22;20401;-66
2023/03/16 02:55:45;;;;;;;9.00;5.20;;;2.80;99.90;;;;;;5034141;28;20034;-67
2023/03/16 02:58:11;;;;;;;7.10;5.13;;;2.80;99.90;;;;;;5034798;28;20477;-69
2023/03/16 03:00:37;;;;;;;8.68;5.00;;;2.80;99.90;;;;;;5033891;28;20102;-68
2023/03/16 03:03:04;;;;;;;6.85;4.70;;;2.70;99.90;;;;;;5035253;28;20066;-69
2023/03/16 03:05:30;;;;;;;8.70;5.18;;;2.60;99.90;;;;;;5017530;28;20026;-67
2023/03/16 03:07:55;;;;;;;9.47;4.77;;;2.60;99.90;;;;;;5035101;28;20040;-67
2023/03/16 03:10:21;;;;;;;7.73;4.80;;;2.50;99.90;;;;;;5035059;28;20029;-67
2023/03/16 03:12:48;;;;;;;8.18;5.28;;;2.50;99.90;;;;;;5017309;28;20029;-67
2023/03/16 03:15:15;;;;;;;10.18;5.15;;;2.40;99.90;;;;;;5035067;28;20032;-69
2023/03/16 03:17:41;;;;;;;6.75;4.80;;;2.40;99.90;;;;;;5034918;28;20017;-67
2023/03/16 03:20:14;;;;;;;;;;;2.40;99.90;;;;;;5035603;28;20013;-67
2023/03/16 03:22:40;;;;;;;6.50;4.57;;;2.50;99.90;;;;;;5034774;28;20427;-67
2023/03/16 03:25:06;;;;;;;7.53;4.47;;;2.60;99.90;;;;;;5016976;28;20029;-67
2023/03/16 03:27:32;;;;;;;8.98;4.40;;;2.60;99.90;;;;;;5035031;28;20313;-67
2023/03/16 03:29:57;;;;;;;6.85;5.25;;;2.70;99.90;;;;;;5034952;28;20025;-67
2023/03/16 03:32:23;;;;;;;7.10;3.60;;;2.70;99.90;;;;;;5034798;28;20535;-66
2023/03/16 03:34:49;;;;;;;9.37;4.13;;;2.70;99.90;;;;;;5034794;28;20100;-66
2023/03/16 03:37:20;;;;;;;6.73;3.73;;;2.70;99.90;;;;;;5034442;28;20041;-67
2023/03/16 03:39:47;;;;;;;5.90;3.55;;;2.70;99.90;;;;;;5016676;28;20112;-68
2023/03/16 03:42:12;;;;;;;;;;;2.70;99.90;;;;;;5017598;28;20045;-68
2023/03/16 03:44:38;;;;;;;5.30;3.33;;;2.80;99.90;;;;;;5034616;28;20304;-67
2023/03/16 03:47:04;;;;;;;5.37;2.77;;;2.80;99.90;;;;;;5034748;28;20497;-68
2023/03/16 03:49:30;;;;;;;5.75;4.05;;;2.80;99.90;;;;;;5034295;28;20104;-67
2023/03/16 03:51:57;;;;;;;4.35;3.33;;;2.80;99.90;;;;;;5034696;28;20517;-67
2023/03/16 03:54:24;;;;;;;7.25;3.42;;;2.80;99.90;;;;;;5033961;28;20112;-68
2023/03/16 03:56:50;;;;;;;6.53;3.10;;;2.90;99.90;;;;;;5034290;28;20446;-67
2023/03/16 03:59:16;;;;;;;5.25;3.38;;;3.10;99.90;;;;;;5034266;28;20417;-68
2023/03/16 04:01:42;;;;;;;3.67;2.83;;;3.00;99.90;;;;;;5034232;28;20083;-67
2023/03/16 04:04:07;;;;;;;7.10;3.33;;;3.00;99.90;;;;;;5034386;28;20025;-68
2023/03/16 04:06:33;;;;;;;4.53;3.47;;;3.10;99.90;;;;;;5016429;28;20025;-69
2023/03/16 04:08:58;;;;;;;6.17;3.33;;;3.00;99.90;;;;;;5033289;28;20044;-67
2023/03/16 04:11:24;;;;;;;9.17;3.47;;;3.00;99.90;;;;;;5016424;28;20099;-68
2023/03/16 04:13:52;;;;;;;6.90;3.40;;;3.00;99.90;;;;;;5016394;28;20045;-68
2023/03/16 04:16:19;;;;;;;6.43;3.50;;;3.00;99.90;;;;;;5016836;28;20112;-67
2023/03/16 04:18:45;;;;;;;;;;;3.00;99.90;;;;;;5034768;28;20033;-68
2023/03/16 04:21:16;;;;;;;4.45;3.40;;;3.00;99.90;;;;;;5034304;28;19905;-67
2023/03/16 04:23:42;;;;;;;9.10;3.60;;;3.00;99.90;;;;;;5033801;28;20512;-66
2023/03/16 04:26:07;;;;;;;5.72;3.67;;;3.00;99.90;;;;;;5016539;28;20092;-66
2023/03/16 04:28:33;;;;;;;6.23;3.87;;;3.00;99.90;;;;;;5033951;28;20033;-67
2023/03/16 04:31:05;;;;;;;8.40;3.53;;;3.00;99.90;;;;;;5016354;28;20294;-67
2023/03/16 04:33:31;;;;;;;5.93;3.75;;;3.00;99.90;;;;;;5015987;28;20029;-67
2023/03/16 04:35:57;;;;;;;6.75;3.95;;;3.00;99.90;;;;;;5016330;28;20030;-67
2023/03/16 04:38:23;;;;;;;5.45;4.25;;;3.00;99.90;;;;;;5035412;28;20034;-68
2023/03/16 04:40:48;;;;;;;5.33;3.90;;;3.00;99.90;;;;;;5034755;28;20592;-67
2023/03/16 04:43:14;;;;;;;12.50;4.40;;;3.00;99.90;;;;;;5017310;28;20021;-67
2023/03/16 04:45:40;;;;;;;7.23;4.40;;;3.00;99.90;;;;;;5034683;28;20021;-68
2023/03/16 04:48:06;;;;;;;8.00;4.60;;;3.00;99.90;;;;;;5033749;28;20121;-67
2023/03/16 04:50:31;;;;;;;6.53;4.23;;;3.00;99.90;;;;;;5033685;28;20068;-68
2023/03/16 04:52:57;;;;;;;6.97;4.50;;;3.00;99.90;;;;;;5033553;28;20034;-67
2023/03/16 04:55:22;;;;;;;7.10;4.30;;;3.00;99.90;;;;;;5033540;28;20076;-66
2023/03/16 04:57:48;;;;;;;6.03;4.37;;;3.00;99.90;;;;;;5033596;28;20026;-67
2023/03/16 05:00:22;;;;;;;8.77;4.80;;;3.00;99.90;;;;;;5033533;28;20026;-68
2023/03/16 05:02:48;;;;;;;7.15;4.78;;;3.10;99.90;;;;;;5015777;28;20116;-68
2023/03/16 05:05:14;;;;;;;7.05;4.82;;;3.10;99.90;;;;;;5033771;28;20047;-67
2023/03/16 05:07:40;;;;;;;6.72;4.72;;;3.00;99.90;;;;;;5034554;28;20026;-69
2023/03/16 05:10:11;;;;;;;7.70;4.63;;;3.10;99.90;;;;;;5016126;28;20036;-66
2023/03/16 05:12:37;;;;;;;8.77;5.00;;;3.10;99.90;;;;;;5034273;28;20101;-66
2023/03/16 05:15:03;;;;;;;10.27;4.90;;;3.10;99.90;;;;;;5033727;28;20538;-68
2023/03/16 05:17:29;;;;;;;;;;;3.00;99.90;;;;;;5016405;28;20028;-67
2023/03/16 05:19:55;;;;;;;12.40;5.75;;;2.90;99.90;;;;;;5034819;28;19921;-67
2023/03/16 05:22:20;;;;;;;9.27;6.10;;;2.80;99.90;;;;;;5037649;28;20021;-67
2023/03/16 05:24:46;;;;;;;10.30;6.63;;;2.80;99.90;;;;;;5037147;28;20025;-67
2023/03/16 05:27:11;;;;;;;11.03;5.60;;;2.70;99.90;;;;;;5019711;28;20029;-68
2023/03/16 05:29:37;;;;;;;8.80;5.90;;;2.60;99.90;;;;;;5036986;28;20358;-66
2023/03/16 05:32:03;;;;;;;8.27;6.23;;;2.50;99.90;;;;;;5016833;28;20029;-67
2023/03/16 05:34:28;;;;;;;11.17;7.03;;;2.50;99.90;;;;;;5016843;28;20128;-69
2023/03/16 05:36:54;;;;;;;11.47;6.57;;;2.40;99.90;;;;;;5028564;28;20284;-68
2023/03/16 05:39:19;;;;;;;10.27;6.83;;;2.40;99.90;;;;;;5018774;28;20060;-67
2023/03/16 05:41:45;;;;;;;11.80;6.63;;;2.30;99.90;;;;;;5018960;28;20041;-68
2023/03/16 05:44:10;;;;;;;11.03;6.50;;;2.30;99.90;;;;;;5019638;28;20064;-68
2023/03/16 05:46:36;;;;;;;12.02;6.82;;;2.30;99.90;;;;;;5037596;28;20044;-67
2023/03/16 05:49:02;;;;;;;10.17;7.17;;;2.30;99.90;;;;;;5029499;28;20046;-66
2023/03/16 05:51:28;;;;;;;11.05;7.18;;;2.30;99.90;;;;;;5020851;28;20064;-68
2023/03/16 05:53:57;;;;;;;11.35;7.10;;;2.30;99.90;;;;;;5015019;28;20038;-68
2023/03/16 05:56:27;;;;;;;12.32;6.82;;;2.40;99.90;;;;;;5009680;28;20068;-67
2023/03/16 05:58:54;;;;;;;13.90;8.10;;;2.50;99.90;;;;;;5018568;28;20017;-67
2023/03/16 06:01:20;;;;;;;14.10;8.05;;;2.50;99.90;;;;;;5037915;28;20017;-67
2023/03/16 06:03:47;;;;;;;11.95;7.82;;;2.50;99.90;;;;;;5029766;28;20029;-67
2023/03/16 06:06:14;;;;;;;14.57;8.15;;;2.50;99.90;;;;;;5024526;28;20029;-67
2023/03/16 06:08:39;;;;;;;12.07;7.45;;;2.50;99.90;;;;;;5017336;28;20462;-67
2023/03/16 06:11:05;;;;;;;13.33;8.53;;;2.50;99.90;;;;;;5022963;28;20030;-67
2023/03/16 06:13:31;;;;;;;16.53;8.70;;;2.60;99.90;;;;;;5037246;28;20398;-68
2023/03/16 06:15:56;;;;;;;12.43;7.83;;;2.60;99.90;;;;;;5017139;28;20025;-70
2023/03/16 06:18:22;;;;;;;14.63;7.97;;;2.50;99.90;;;;;;5018393;28;20781;-68
2023/03/16 06:20:47;;;;;;;13.10;8.13;;;2.50;99.90;;;;;;5033534;28;20057;-67
2023/03/16 06:23:13;;;;;;;10.70;7.93;;;2.50;99.90;;;;;;5023651;28;20025;-68
2023/03/16 06:25:39;;;;;;;13.40;7.73;;;2.50;99.90;;;;;;5018772;28;20037;-66
2023/03/16 06:28:06;;;;;;;10.15;7.30;;;2.60;99.90;;;;;;5019084;28;20283;-67
2023/03/16 06:30:31;;;;;;;14.27;8.38;;;2.60;99.90;;;;;;5032721;28;20065;-68
2023/03/16 06:32:58;;;;;;;16.33;9.10;;;2.70;99.90;;;;;;5018975;28;20421;-67
2023/03/16 06:35:25;;;;;;;15.68;9.82;;;2.70;99.90;;;;;;5036440;28;20478;-67
2023/03/16 06:37:50;;;;;;;12.35;8.30;;;2.70;99.90;;;;;;5012338;28;20056;-65
2023/03/16 06:40:16;;;;;;;14.17;8.37;;;2.60;99.90;;;;;;5036514;28;20025;-67
2023/03/16 06:42:42;;;;;;;14.45;9.15;;;2.50;99.90;;;;;;5037528;28;20053;-67
2023/03/16 06:45:09;;;;;;;15.98;9.32;;;2.60;99.90;;;;;;5020029;28;20026;-68
2023/03/16 06:47:35;;;;;;;15.15;8.95;;;2.60;99.90;;;;;;5037583;28;20026;-68
2023/03/16 06:50:01;;;;;;;14.43;8.20;;;2.60;99.90;;;;;;5022242;28;20028;-68
2023/03/16 06:52:26;;;;;;;18.98;9.70;;;2.60;99.90;;;;;;5039982;28;20034;-67
2023/03/16 06:54:52;;;;;;;13.57;8.80;;;2.60;99.90;;;;;;5019858;28;20037;-66
2023/03/16 06:57:18;;;;;;;12.83;8.13;;;2.70;99.90;;;;;;5037789;28;20029;-68
2023/03/16 06:59:43;;;;;;;15.00;8.67;;;2.80;99.90;;;;;;5035805;28;20052;-67
2023/03/16 07:02:13;;;;;;;14.13;8.37;;;2.80;99.90;;;;;;5017797;28;20120;-67
2023/03/16 07:04:39;;;;;;;12.68;8.55;;;2.90;99.90;;;;;;5035981;28;20022;-67
2023/03/16 07:07:05;;;;;;;14.40;8.23;;;3.00;99.90;;;;;;5035281;28;20025;-67
2023/03/16 07:09:30;;;;;;;11.47;7.70;;;3.00;99.90;;;;;;5034059;28;20053;-65
2023/03/16 07:11:56;;;;;;;13.93;9.47;;;3.10;99.90;;;;;;5033578;28;20104;-67
2023/03/16 07:14:23;;;;;;;13.35;8.45;;;3.20;99.90;;;;;;5016717;28;20032;-68
2023/03/16 07:16:49;;;;;;;15.00;9.32;;;3.20;99.90;;;;;;5017296;28;20394;-67
2023/03/16 07:19:14;;;;;;;14.77;9.47;;;3.30;99.90;;;;;;5035605;28;20025;-68
2023/03/16 07:21:40;;;;;;;14.33;8.53;;;3.30;99.90;;;;;;5018758;28;20090;-67
2023/03/16 07:24:08;;;;;;;13.95;8.63;;;3.30;99.90;;;;;;5019298;28;20018;-68
2023/03/16 07:26:33;;;;;;;18.60;8.88;;;3.40;99.90;;;;;;5017893;28;20057;-67
2023/03/16 07:28:59;;;;;;;16.37;9.03;;;3.50;99.90;;;;;;5035524;28;20095;-69
2023/03/16 07:31:25;;;;;;;14.87;9.70;;;3.60;99.90;;;;;;5036974;28;20505;-63
2023/03/16 07:33:51;;;;;;;13.83;8.53;;;3.60;99.90;;;;;;5030279;28;20101;-68
2023/03/16 07:36:16;;;;;;;14.47;9.00;;;3.70;99.90;;;;;;5025972;28;20304;-68
2023/03/16 07:38:42;;;;;;;11.63;8.17;;;3.80;99.90;;;;;;5017255;28;20761;-69
2023/03/16 07:41:07;;;;;;;11.07;8.37;;;3.80;99.90;;;;;;5016204;28;20025;-69
2023/03/16 07:43:33;;;;;;;14.97;9.07;;;3.90;99.90;;;;;;5005899;28;20025;-68
2023/03/16 07:46:00;;;;;;;11.65;8.02;;;3.90;99.90;;;;;;5018058;28;20025;-68
2023/03/16 07:48:25;;;;;;;12.18;7.93;;;4.00;99.90;;;;;;5017928;28;20451;-68
2023/03/16 07:50:51;;;;;;;13.33;8.43;;;4.10;99.90;;;;;;5018634;28;20111;-68
2023/03/16 07:53:17;;;;;;;12.60;8.07;;;4.20;99.90;;;;;;5027668;28;20037;-68
2023/03/16 07:55:43;;;;;;;11.33;7.40;;;4.20;99.90;;;;;;5004349;28;20265;-67
2023/03/16 07:58:10;;;;;;;18.23;8.15;;;4.20;99.90;;;;;;5019198;28;20038;-68
2023/03/16 08:00:35;;;;;;;;;;;4.20;99.90;;;;;;5015861;28;20111;-67
2023/03/16 08:03:01;;;;;;;12.68;7.50;;;4.30;99.90;;;;;;5014951;28;19905;-66
2023/03/16 08:05:28;;;;;;;8.60;7.00;;;4.40;99.90;;;;;;5014915;28;20475;-69
2023/03/16 08:07:54;;;;;;;11.85;6.90;;;4.50;99.90;;;;;;5015753;28;20037;-70
2023/03/16 08:10:20;;;;;;;11.45;6.45;;;4.60;99.90;;;;;;4997842;28;20026;-71
2023/03/16 08:12:46;;;;;;;8.85;5.80;;;4.80;99.90;;;;;;4998850;28;20026;-70
2023/03/16 08:15:12;;;;;;;7.83;4.80;;;4.90;99.90;;;;;;5035659;28;20037;-70
2023/03/16 08:17:40;;;;;;;11.20;5.23;;;5.00;99.90;;;;;;5035368;28;20033;-70
2023/03/16 08:20:11;;;;;;;10.05;5.18;;;5.10;99.90;;;;;;5017055;28;20057;-70
2023/03/16 08:22:37;;;;;;;8.55;4.63;;;5.20;99.90;;;;;;5016749;28;20017;-70
2023/03/16 08:25:04;;;;;;;7.40;4.30;;;5.40;99.90;;;;;;5034782;28;20017;-70
2023/03/16 08:27:31;;;;;;;7.88;4.15;;;5.40;99.90;;;;;;5031550;28;20033;-70
2023/03/16 08:29:56;;;;;;;10.98;4.40;;;5.60;99.90;;;;;;5025904;28;20507;-69
2023/03/16 08:32:22;;;;;;;6.50;3.95;;;5.70;99.90;;;;;;5017209;28;20128;-70
2023/03/16 08:34:48;;;;;;;10.13;3.72;;;5.80;99.90;;;;;;5035130;28;20025;-70
2023/03/16 08:37:15;;;;;;;8.93;3.92;;;5.90;99.90;;;;;;5016445;28;20025;-70
2023/03/16 08:39:42;;;;;;;7.53;4.20;;;6.10;99.90;;;;;;5034156;28;20383;-69
2023/03/16 08:42:09;;;;;;;12.45;5.90;;;6.20;99.90;;;;;;5033783;28;20021;-70
2023/03/16 08:44:35;;;;;;;;;;;6.30;99.90;;;;;;5016632;28;20021;-70
2023/03/16 08:47:01;;;;;;;6.50;4.18;;;6.30;99.90;;;;;;5016157;28;20400;-69
2023/03/16 08:49:28;;;;;;;13.88;5.00;;;6.40;99.90;;;;;;5016086;28;20112;-70
2023/03/16 08:51:53;;;;;;;9.07;3.75;;;6.60;99.90;;;;;;5034232;28;20422;-71
2023/03/16 08:54:19;;;;;;;6.30;4.00;;;6.80;99.90;;;;;;5014841;28;20042;-69
2023/03/16 08:56:45;;;;;;;9.07;4.50;;;6.80;99.90;;;;;;5030124;28;20330;-70
2023/03/16 08:59:10;;;;;;;5.20;3.63;;;6.90;99.90;;;;;;5034648;28;20022;-70
2023/03/16 09:01:36;;;;;;;7.87;3.80;;;7.10;99.90;;;;;;5020863;28;20021;-70
2023/03/16 09:04:02;;;;;;;6.13;3.87;;;7.30;99.90;;;;;;4996156;28;20018;-70
2023/03/16 09:06:27;;;;;;;4.22;3.30;;;7.60;99.90;;;;;;5014174;28;20029;-70
2023/03/16 09:08:54;;;;;;;5.67;3.13;;;8.20;99.90;;;;;;5013895;28;20384;-70
2023/03/16 09:11:21;;;;;;;6.78;3.28;;;8.50;99.90;;;;;;4996203;28;20022;-69
2023/03/16 09:13:47;;;;;;;6.63;3.10;;;9.20;99.90;;;;;;5014227;28;20097;-69
2023/03/16 09:16:14;;;;;;;9.43;5.00;;;10.60;99.90;;;;;;5013580;28;20507;-70
2023/03/16 09:18:41;;;;;;;6.40;3.80;;;12.70;99.00;;;;;;5016325;28;20075;-70
2023/03/16 09:21:07;;;;;;;;;;;14.70;94.40;;;;;;5034170;28;20025;-70
2023/03/16 09:23:36;;;;;;;5.57;3.37;;;16.40;90.50;;;;;;5015958;28;19905;-71
2023/03/16 09:26:06;;;;;;;5.65;2.65;;;17.70;85.50;;;;;;5033318;28;20020;-71
2023/03/16 09:28:32;;;;;;;4.85;3.10;;;18.70;79.90;;;;;;5015550;28;20038;-70
2023/03/16 09:30:59;;;;;;;4.60;2.10;;;20.10;74.70;;;;;;5015981;28;20025;-70
2023/03/16 09:33:27;;;;;;;3.85;2.40;;;20.80;72.10;;;;;;5015695;28;20025;-70
2023/03/16 09:35:54;;;;;;;4.50;2.50;;;21.50;68.30;;;;;;5033149;28;20025;-70
2023/03/16 09:38:20;;;;;;;4.07;2.47;;;21.80;66.90;;;;;;5033830;28;20099;-70
2023/03/16 09:40:54;;;;;;;5.43;2.70;;;22.20;65.20;;;;;;5014661;28;20064;-71
2023/03/16 09:43:51;;;;;;;4.82;2.63;;;21.40;65.70;;;;;;5015673;28;20025;-71
2023/03/16 09:46:40;;;;;;;4.07;2.90;;;21.40;65.20;;;;;;5032171;28;20497;-71
2023/03/16 09:49:09;;;;;;;4.90;2.60;;;22.20;63.80;;;;;;5032810;28;20055;-71
2023/03/16 09:52:00;;;;;;;5.20;2.78;;;22.90;62.30;;;;;;5032837;28;20097;-69
2023/03/16 09:54:33;;;;;;;3.75;2.72;;;23.10;61.90;;;;;;5032773;28;20042;-70
2023/03/16 09:57:00;;;;;;;5.22;2.83;;;22.90;61.60;;;;;;5014567;28;20064;-70
2023/03/16 09:59:26;;;;;;;4.25;3.20;;;22.40;62.00;;;;;;5032855;28;20546;-70
2023/03/16 10:02:09;;;;;;;4.32;2.97;;;22.50;62.10;;;;;;5032799;28;20097;-71
2023/03/16 10:05:05;;;;;;;3.22;2.55;;;23.20;60.70;;;;;;5015293;28;20053;-70
2023/03/16 10:08:01;;;;;;;3.75;2.50;;;22.90;61.00;;;;;;5017265;28;20538;-71
2023/03/16 10:10:32;;;;;;;5.32;2.80;;;23.60;60.60;;;;;;5018876;28;20390;-72
2023/03/16 10:12:59;;;;;;;3.65;2.70;;;23.90;59.90;;;;;;5036427;28;20025;-71
2023/03/16 10:15:28;;;;;;;2.35;2.05;;;24.20;59.20;;;;;;5036498;28;20026;-71
2023/03/16 10:18:15;;;;;;;4.57;2.85;;;24.80;58.20;;;;;;5013117;28;20061;-70
2023/03/16 10:20:42;;;;;;;2.85;2.20;;;24.20;58.30;;;;;;5037126;28;20377;-70
2023/03/16 10:23:26;;;;;;;3.58;2.60;;;24.60;58.20;;;;;;5027813;28;20030;-69
2023/03/16 10:25:53;;;;;;;5.30;2.60;;;24.50;58.20;;;;;;5017808;28;20035;-71
2023/03/16 10:28:22;;;;;;;4.28;2.50;;;25.10;57.00;;;;;;5017990;28;20022;-70
2023/03/16 10:30:50;;;;;;;4.43;2.40;;;25.20;56.00;;;;;;4999839;28;20030;-70
2023/03/16 10:33:33;;;;;;;5.35;2.55;;;24.50;57.20;;;;;;5017236;28;20486;-70
2023/03/16 10:36:12;;;;;;;4.35;2.88;;;23.30;59.00;;;;;;5018988;28;20034;-70
2023/03/16 10:38:54;;;;;;;3.90;2.47;;;24.40;57.80;;;;;;5000998;28;20113;-71
2023/03/16 10:41:25;;;;;;;4.05;2.10;;;25.90;56.20;;;;;;5020730;28;20029;-70
2023/03/16 10:44:06;;;;;;;2.60;1.58;;;26.10;55.40;;;;;;5025439;28;20025;-71
2023/03/16 10:46:38;;;;;;;4.22;2.00;;;26.20;53.50;;;;;;5037054;28;20017;-72
2023/03/16 10:49:04;;;;;;;4.40;2.08;;;25.60;54.90;;;;;;5041317;28;20021;-70
2023/03/16 10:51:31;;;;;;;;;;;25.10;55.40;;;;;;5040463;28;20386;-70
2023/03/16 10:54:13;;;;;;;3.42;2.28;;;25.80;55.90;;;;;;5022046;28;19912;-71
2023/03/16 10:56:39;;;;;;;3.90;1.90;;;26.50;54.70;;;;;;5037089;28;20120;-70
2023/03/16 10:59:14;;;;;;;1.73;1.42;;;26.30;54.00;;;;;;5037149;28;20095;-70
2023/03/16 11:01:44;;;;;;;3.30;1.67;;;26.10;53.60;;;;;;5021963;28;20056;-69
2023/03/16 11:04:15;;;;;;;2.67;1.70;;;26.20;52.60;;;;;;5021377;28;20029;-71
2023/03/16 11:06:48;;;;;;;2.28;1.40;;;26.20;52.90;;;;;;5036535;28;20513;-69
2023/03/16 11:09:20;;;;;;;4.32;1.80;;;25.80;52.20;;;;;;5038705;28;20033;-70
2023/03/16 11:11:48;;;;;;;3.25;1.45;;;23.90;53.80;;;;;;5002725;28;20025;-69
2023/03/16 11:14:14;;;;;;;3.03;1.20;;;21.30;55.70;;;;;;5036705;28;20029;-69
2023/03/16 11:16:52;;;;;;;5.35;1.33;;;19.30;59.10;;;;;;5037014;28;20083;-70
2023/03/16 11:19:26;;;;;;;2.33;1.33;;;18.10;61.40;;;;;;5037128;28;20022;-69
2023/03/16 11:22:02;;;;;;;3.58;1.92;;;17.50;63.10;;;;;;5017456;28;20109;-70
2023/03/16 11:24:59;;;;;;;3.97;1.90;;;16.90;63.30;;;;;;5035107;28;20021;-69
2023/03/16 11:27:40;;;;;;;2.83;1.20;;;16.50;64.90;;;;;;5035160;28;20055;-69
2023/03/16 11:30:19;;;;;;;2.42;1.20;;;16.00;65.10;;;;;;5034594;28;20087;-70
2023/03/16 11:32:52;;;;;;;2.15;1.10;;;15.90;66.40;;;;;;5033657;28;20466;-69
2023/03/16 11:35:41;;;;;;;3.47;1.10;;;15.80;66.30;;;;;;5035078;28;20032;-69
2023/03/16 11:38:40;;;;;;;2.03;1.10;;;15.80;67.40;;;;;;5016375;28;20025;-69
2023/03/16 11:41:10;;;;;;;3.50;1.10;;;15.70;67.30;;;;;;5015447;28;20025;-68
2023/03/16 11:44:02;;;;;;;3.50;1.25;;;15.40;66.70;;;;;;5034145;28;20057;-69
2023/03/16 11:46:33;;;;;;;3.47;1.05;;;14.90;68.00;;;;;;5034423;28;20100;-69
2023/03/16 11:49:11;;;;;;;3.08;0.95;;;14.60;68.40;;;;;;5016457;28;20033;-69
2023/03/16 11:51:58;;;;;;;2.33;1.00;;;14.50;68.40;;;;;;5034249;28;20028;-69
2023/03/16 11:54:51;;;;;;;3.70;0.88;;;14.00;69.30;;;;;;5034131;28;20038;-70
2023/03/16 11:57:48;;;;;;;1.85;1.10;;;14.10;69.80;;;;;;5033844;28;20037;-69
2023/03/16 12:00:26;;;;;;;3.73;1.30;;;14.40;69.70;;;;;;5036153;28;20021;-69
2023/03/16 12:02:57;;;;;;;3.40;0.95;;;14.40;68.90;;;;;;5033684;28;20136;-70
2023/03/16 12:05:59;;;;;;;3.22;1.00;;;14.50;69.10;;;;;;5034713;28;20021;-69
2023/03/16 12:08:48;;;;;;;2.88;1.15;;;14.70;68.30;;;;;;4996579;28;20104;-70
2023/03/16 12:11:27;;;;;;;4.68;1.20;;;14.50;68.70;;;;;;5034123;28;20044;-69
2023/03/16 12:14:07;;;;;;;2.25;1.00;;;14.30;68.60;;;;;;5034486;28;20021;-69
2023/03/16 12:16:42;;;;;;;2.55;0.90;;;14.20;68.70;;;;;;5037321;28;20027;-66
2023/03/16 12:19:23;;;;;;;3.50;1.73;;;13.90;69.50;;;;;;4997179;28;20018;-71
2023/03/16 12:22:12;;;;;;;3.25;1.25;;;13.60;69.80;;;;;;5013230;28;20125;-71
2023/03/16 12:24:42;;;;;;;2.42;0.80;;;13.40;70.40;;;;;;5014169;28;20022;-69
2023/03/16 12:27:29;;;;;;;2.17;0.95;;;13.40;69.90;;;;;;5025482;28;20098;-68
2023/03/16 12:30:16;;;;;;;2.17;0.90;;;13.30;70.30;;;;;;4996089;28;20386;-70
2023/03/16 12:32:52;;;;;;;2.67;0.93;;;13.20;69.50;;;;;;5030740;28;20035;-66
2023/03/16 12:35:34;;;;;;;3.27;1.07;;;13.30;70.80;;;;;;5032900;28;20057;-70
2023/03/16 12:38:32;;;;;;;2.25;0.93;;;13.30;70.20;;;;;;5033009;28;20135;-71
2023/03/16 12:41:12;;;;;;;2.00;0.93;;;13.30;70.90;;;;;;5033004;28;20029;-66
2023/03/16 12:43:50;;;;;;;2.78;1.15;;;13.30;70.10;;;;;;5029763;28;20497;-67
2023/03/16 12:46:27;;;;;;;1.75;0.80;;;13.30;69.70;;;;;;5022390;28;20494;-67
2023/03/16 12:48:57;;;;;;;2.53;1.10;;;13.30;70.20;;;;;;5035531;28;20478;-65
2023/03/16 12:51:37;;;;;;;1.90;1.00;;;13.20;69.80;;;;;;5035123;28;20025;-66
2023/03/16 12:54:04;;;;;;;1.45;0.88;;;13.30;69.60;;;;;;5017124;28;20060;-68
2023/03/16 12:56:32;;;;;;;2.28;0.95;;;13.40;70.00;;;;;;5033359;28;20025;-71
2023/03/16 12:59:01;;;;;;;3.38;1.10;;;13.40;69.70;;;;;;5033123;28;20379;-69
2023/03/16 13:01:29;;;;;;;3.50;0.90;;;13.50;70.10;;;;;;5029647;28;20029;-68
2023/03/16 13:04:14;;;;;;;1.73;0.90;;;13.60;69.90;;;;;;5013714;28;20082;-68
2023/03/16 13:06:47;;;;;;;3.03;0.90;;;13.60;69.50;;;;;;5012918;28;20022;-69
2023/03/16 13:09:18;;;;;;;2.20;0.90;;;13.50;69.60;;;;;;5012528;28;20056;-67